sensor_id;sensor_type;location;lat;lon;timestamp;temperature;humidity
21823;DHT22;11074;48.596;9.238;2023-02-25T00:01:22;6.80;99.90
21823;DHT22;11074;48.596;9.238;2023-02-25T00:03:54;6.80;99.90
21823;DHT22;11074;48.596;9.238;2023-02-25T00:06:21;6.80;99.90
21823;DHT22;11074;48.596;9.238;2023-02-25T00:08:48;6.80;99.90
21823;DHT22;11074;48.596;9.238;2023-02-25T00:11:16;6.80;99.90
21823;DHT22;11074;48.596;9.238;2023-02-25T00:13:43;6.90;99.90
21823;DHT22;11074;48.596;9.238;2023-02-25T00:16:10;6.90;99.90
21823;DHT22;11074;48.596;9.238;2023-02-25T00:18:37;6.70;99.90
21823;DHT22;11074;48.596;9.238;2023-02-25T00:21:06;6.60;99.90
21823;DHT22;11074;48.596;9.238;2023-02-25T00:23:34;6.70;99.90
21823;DHT22;11074;48.596;9.238;2023-02-25T00:26:02;6.60;99.90
21823;DHT22;11074;48.596;9.238;2023-02-25T00:28:32;6.60;99.90
21823;DHT22;11074;48.596;9.238;2023-02-25T00:30:58;6.50;99.90
21823;DHT22;11074;48.596;9.238;2023-02-25T00:33:24;6.60;99.90
21823;DHT22;11074;48.596;9.238;2023-02-25T00:35:50;6.60;99.90
21823;DHT22;11074;48.596;9.238;2023-02-25T00:38:16;6.60;99.90
21823;DHT22;11074;48.596;9.238;2023-02-25T00:40:42;6.70;99.90
21823;DHT22;11074;48.596;9.238;2023-02-25T00:43:08;6.60;99.90
21823;DHT22;11074;48.596;9.238;2023-02-25T00:45:36;6.50;99.90
21823;DHT22;11074;48.596;9.238;2023-02-25T00:48:03;6.60;99.90
21823;DHT22;11074;48.596;9.238;2023-02-25T00:50:29;6.60;99.90
21823;DHT22;11074;48.596;9.238;2023-02-25T00:52:55;6.60;99.90
21823;DHT22;11074;48.596;9.238;2023-02-25T00:55:20;6.60;99.90
21823;DHT22;11074;48.596;9.238;2023-02-25T00:57:46;6.70;99.90
21823;DHT22;11074;48.596;9.238;2023-02-25T01:00:12;6.70;99.90
21823;DHT22;11074;48.596;9.238;2023-02-25T01:02:42;6.70;99.90
21823;DHT22;11074;48.596;9.238;2023-02-25T01:05:12;6.70;99.90
21823;DHT22;11074;48.596;9.238;2023-02-25T01:07:39;6.70;99.90
21823;DHT22;11074;48.596;9.238;2023-02-25T01:10:06;6.60;99.90
21823;DHT22;11074;48.596;9.238;2023-02-25T01:12:35;6.60;99.90
21823;DHT22;11074;48.596;9.238;2023-02-25T01:15:02;6.60;99.90
21823;DHT22;11074;48.596;9.238;2023-02-25T01:17:28;6.50;99.90
21823;DHT22;11074;48.596;9.238;2023-02-25T01:19:54;6.40;99.90
21823;DHT22;11074;48.596;9.238;2023-02-25T01:22:22;6.40;99.90
21823;DHT22;11074;48.596;9.238;2023-02-25T01:24:48;6.50;99.90
21823;DHT22;11074;48.596;9.238;2023-02-25T01:27:13;6.50;99.90
21823;DHT22;11074;48.596;9.238;2023-02-25T01:29:39;6.50;99.90
21823;DHT22;11074;48.596;9.238;2023-02-25T01:32:10;6.50;99.90
21823;DHT22;11074;48.596;9.238;2023-02-25T01:34:38;6.40;99.90
21823;DHT22;11074;48.596;9.238;2023-02-25T01:37:05;6.40;99.90
21823;DHT22;11074;48.596;9.238;2023-02-25T01:39:31;6.40;99.90
21823;DHT22;11074;48.596;9.238;2023-02-25T01:41:58;6.40;99.90
21823;DHT22;11074;48.596;9.238;2023-02-25T01:44:32;6.40;99.90
21823;DHT22;11074;48.596;9.238;2023-02-25T01:47:02;6.40;99.90
21823;DHT22;11074;48.596;9.238;2023-02-25T01:49:40;6.40;99.90
21823;DHT22;11074;48.596;9.238;2023-02-25T01:52:15;6.50;99.90
21823;DHT22;11074;48.596;9.238;2023-02-25T01:54:47;6.50;99.90
21823;DHT22;11074;48.596;9.238;2023-02-25T01:57:18;6.60;99.90
21823;DHT22;11074;48.596;9.238;2023-02-25T01:59:46;6.60;99.90
21823;DHT22;11074;48.596;9.238;2023-02-25T02:02:17;6.50;99.90
21823;DHT22;11074;48.596;9.238;2023-02-25T02:04:46;6.50;99.90
21823;DHT22;11074;48.596;9.238;2023-02-25T02:07:15;6.40;99.90
21823;DHT22;11074;48.596;9.238;2023-02-25T02:09:42;6.40;99.90
21823;DHT22;11074;48.596;9.238;2023-02-25T02:12:28;6.50;99.90
21823;DHT22;11074;48.596;9.238;2023-02-25T02:15:00;6.50;99.90
21823;DHT22;11074;48.596;9.238;2023-02-25T02:17:37;6.50;99.90
21823;DHT22;11074;48.596;9.238;2023-02-25T02:20:32;6.40;99.90
21823;DHT22;11074;48.596;9.238;2023-02-25T02:34:11;6.30;99.90
21823;DHT22;11074;48.596;9.238;2023-02-25T02:39:33;6.20;99.90
21823;DHT22;11074;48.596;9.238;2023-02-25T02:42:33;6.20;99.90
21823;DHT22;11074;48.596;9.238;2023-02-25T02:45:09;6.30;99.90
21823;DHT22;11074;48.596;9.238;2023-02-25T02:48:06;6.30;99.90
21823;DHT22;11074;48.596;9.238;2023-02-25T02:50:47;6.30;99.90
21823;DHT22;11074;48.596;9.238;2023-02-25T02:53:34;6.30;99.90
21823;DHT22;11074;48.596;9.238;2023-02-25T02:56:06;6.30;99.90
21823;DHT22;11074;48.596;9.238;2023-02-25T02:58:35;6.30;99.90
21823;DHT22;11074;48.596;9.238;2023-02-25T03:01:15;6.30;99.90
21823;DHT22;11074;48.596;9.238;2023-02-25T03:03:48;6.30;99.90
21823;DHT22;11074;48.596;9.238;2023-02-25T03:06:21;6.30;99.90
21823;DHT22;11074;48.596;9.238;2023-02-25T03:08:55;6.30;99.90
21823;DHT22;11074;48.596;9.238;2023-02-25T03:11:26;6.30;99.90
21823;DHT22;11074;48.596;9.238;2023-02-25T03:13:53;6.40;99.90
21823;DHT22;11074;48.596;9.238;2023-02-25T03:16:29;6.40;99.90
21823;DHT22;11074;48.596;9.238;2023-02-25T03:19:07;6.40;99.90
21823;DHT22;11074;48.596;9.238;2023-02-25T03:21:41;6.40;99.90
21823;DHT22;11074;48.596;9.238;2023-02-25T03:24:21;6.40;99.90
21823;DHT22;11074;48.596;9.238;2023-02-25T03:26:51;6.40;99.90
21823;DHT22;11074;48.596;9.238;2023-02-25T03:29:21;6.40;99.90
21823;DHT22;11074;48.596;9.238;2023-02-25T03:31:54;6.30;99.90
21823;DHT22;11074;48.596;9.238;2023-02-25T03:34:32;6.40;99.90
21823;DHT22;11074;48.596;9.238;2023-02-25T03:37:08;6.40;99.90
21823;DHT22;11074;48.596;9.238;2023-02-25T03:39:45;6.30;99.90
21823;DHT22;11074;48.596;9.238;2023-02-25T03:42:17;6.20;99.90
21823;DHT22;11074;48.596;9.238;2023-02-25T03:44:51;6.20;99.90
21823;DHT22;11074;48.596;9.238;2023-02-25T03:47:20;6.20;99.90
21823;DHT22;11074;48.596;9.238;2023-02-25T03:50:08;6.20;99.90
21823;DHT22;11074;48.596;9.238;2023-02-25T03:52:39;6.20;99.90
21823;DHT22;11074;48.596;9.238;2023-02-25T03:55:07;6.20;99.90
21823;DHT22;11074;48.596;9.238;2023-02-25T03:57:39;6.20;99.90
21823;DHT22;11074;48.596;9.238;2023-02-25T04:00:13;6.10;99.90
21823;DHT22;11074;48.596;9.238;2023-02-25T04:02:58;6.10;99.90
21823;DHT22;11074;48.596;9.238;2023-02-25T04:05:24;6.00;99.90
21823;DHT22;11074;48.596;9.238;2023-02-25T04:07:52;6.00;99.90
21823;DHT22;11074;48.596;9.238;2023-02-25T04:10:19;6.00;99.90
21823;DHT22;11074;48.596;9.238;2023-02-25T04:12:45;6.00;99.90
21823;DHT22;11074;48.596;9.238;2023-02-25T04:15:11;6.00;99.90
21823;DHT22;11074;48.596;9.238;2023-02-25T04:17:38;6.10;99.90
21823;DHT22;11074;48.596;9.238;2023-02-25T04:20:05;6.10;99.90
21823;DHT22;11074;48.596;9.238;2023-02-25T04:22:31;6.10;99.90
21823;DHT22;11074;48.596;9.238;2023-02-25T04:24:57;6.10;99.90
21823;DHT22;11074;48.596;9.238;2023-02-25T04:27:23;6.10;99.90
21823;DHT22;11074;48.596;9.238;2023-02-25T04:29:49;6.10;99.90
21823;DHT22;11074;48.596;9.238;2023-02-25T04:32:15;6.10;99.90
21823;DHT22;11074;48.596;9.238;2023-02-25T04:34:40;6.10;99.90
21823;DHT22;11074;48.596;9.238;2023-02-25T04:37:06;6.10;99.90
21823;DHT22;11074;48.596;9.238;2023-02-25T04:39:33;6.10;99.90
21823;DHT22;11074;48.596;9.238;2023-02-25T04:41:59;6.10;99.90
21823;DHT22;11074;48.596;9.238;2023-02-25T04:44:25;6.00;99.90
21823;DHT22;11074;48.596;9.238;2023-02-25T04:46:51;6.00;99.90
21823;DHT22;11074;48.596;9.238;2023-02-25T04:49:18;6.00;99.90
21823;DHT22;11074;48.596;9.238;2023-02-25T04:51:46;6.00;99.90
21823;DHT22;11074;48.596;9.238;2023-02-25T04:54:14;6.10;99.90
21823;DHT22;11074;48.596;9.238;2023-02-25T04:56:40;6.00;99.90
21823;DHT22;11074;48.596;9.238;2023-02-25T04:59:06;5.90;99.90
21823;DHT22;11074;48.596;9.238;2023-02-25T05:01:32;5.90;99.90
21823;DHT22;11074;48.596;9.238;2023-02-25T05:03:59;5.90;99.90
21823;DHT22;11074;48.596;9.238;2023-02-25T05:06:28;5.80;99.90
21823;DHT22;11074;48.596;9.238;2023-02-25T05:08:55;5.90;99.90
21823;DHT22;11074;48.596;9.238;2023-02-25T05:11:23;5.90;99.90
21823;DHT22;11074;48.596;9.238;2023-02-25T05:13:50;5.80;99.90
21823;DHT22;11074;48.596;9.238;2023-02-25T05:16:17;5.80;99.90
21823;DHT22;11074;48.596;9.238;2023-02-25T05:18:45;5.70;99.90
21823;DHT22;11074;48.596;9.238;2023-02-25T05:21:14;5.70;99.90
21823;DHT22;11074;48.596;9.238;2023-02-25T05:23:43;5.70;99.90
21823;DHT22;11074;48.596;9.238;2023-02-25T05:26:11;5.60;99.90
21823;DHT22;11074;48.596;9.238;2023-02-25T05:28:38;5.60;99.90
21823;DHT22;11074;48.596;9.238;2023-02-25T05:31:09;5.60;99.90
21823;DHT22;11074;48.596;9.238;2023-02-25T05:33:37;5.60;99.90
21823;DHT22;11074;48.596;9.238;2023-02-25T05:36:06;5.50;99.90
21823;DHT22;11074;48.596;9.238;2023-02-25T05:38:33;5.50;99.90
21823;DHT22;11074;48.596;9.238;2023-02-25T05:41:00;5.50;99.90
21823;DHT22;11074;48.596;9.238;2023-02-25T05:43:26;5.60;99.90
21823;DHT22;11074;48.596;9.238;2023-02-25T05:45:53;5.60;99.90
21823;DHT22;11074;48.596;9.238;2023-02-25T05:48:20;5.60;99.90
21823;DHT22;11074;48.596;9.238;2023-02-25T05:50:47;5.60;99.90
21823;DHT22;11074;48.596;9.238;2023-02-25T05:53:15;5.60;99.90
21823;DHT22;11074;48.596;9.238;2023-02-25T05:55:43;5.60;99.90
21823;DHT22;11074;48.596;9.238;2023-02-25T05:58:09;5.40;99.90
21823;DHT22;11074;48.596;9.238;2023-02-25T06:00:36;5.30;99.90
21823;DHT22;11074;48.596;9.238;2023-02-25T06:03:03;5.20;99.90
21823;DHT22;11074;48.596;9.238;2023-02-25T06:05:29;5.10;99.90
21823;DHT22;11074;48.596;9.238;2023-02-25T06:07:56;5.10;99.90
21823;DHT22;11074;48.596;9.238;2023-02-25T06:10:23;5.10;99.90
21823;DHT22;11074;48.596;9.238;2023-02-25T06:12:50;5.10;99.90
21823;DHT22;11074;48.596;9.238;2023-02-25T06:15:16;5.10;99.90
21823;DHT22;11074;48.596;9.238;2023-02-25T06:17:41;5.10;99.90
21823;DHT22;11074;48.596;9.238;2023-02-25T06:20:08;5.10;99.90
21823;DHT22;11074;48.596;9.238;2023-02-25T06:22:34;5.10;99.90
21823;DHT22;11074;48.596;9.238;2023-02-25T06:25:00;5.20;99.90
21823;DHT22;11074;48.596;9.238;2023-02-25T06:27:26;5.00;99.90
21823;DHT22;11074;48.596;9.238;2023-02-25T06:29:54;5.10;99.90
21823;DHT22;11074;48.596;9.238;2023-02-25T06:32:19;5.10;99.90
21823;DHT22;11074;48.596;9.238;2023-02-25T06:34:45;5.00;99.90
21823;DHT22;11074;48.596;9.238;2023-02-25T06:37:11;5.10;99.90
21823;DHT22;11074;48.596;9.238;2023-02-25T06:39:36;5.10;99.90
21823;DHT22;11074;48.596;9.238;2023-02-25T06:42:02;5.10;99.90
21823;DHT22;11074;48.596;9.238;2023-02-25T06:44:28;5.20;99.90
21823;DHT22;11074;48.596;9.238;2023-02-25T06:46:55;5.10;99.90
21823;DHT22;11074;48.596;9.238;2023-02-25T06:49:21;5.10;99.90
21823;DHT22;11074;48.596;9.238;2023-02-25T06:51:48;5.10;99.90
21823;DHT22;11074;48.596;9.238;2023-02-25T06:54:18;5.20;99.90
21823;DHT22;11074;48.596;9.238;2023-02-25T06:56:44;5.20;99.90
21823;DHT22;11074;48.596;9.238;2023-02-25T06:59:10;5.20;99.90
21823;DHT22;11074;48.596;9.238;2023-02-25T07:01:35;5.20;99.90
21823;DHT22;11074;48.596;9.238;2023-02-25T07:04:02;5.20;99.90
21823;DHT22;11074;48.596;9.238;2023-02-25T07:06:29;5.30;99.90
21823;DHT22;11074;48.596;9.238;2023-02-25T07:08:55;5.30;99.90
21823;DHT22;11074;48.596;9.238;2023-02-25T07:11:26;5.30;99.90
21823;DHT22;11074;48.596;9.238;2023-02-25T07:13:55;5.30;99.90
21823;DHT22;11074;48.596;9.238;2023-02-25T07:16:20;5.20;99.90
21823;DHT22;11074;48.596;9.238;2023-02-25T07:18:46;5.20;99.90
21823;DHT22;11074;48.596;9.238;2023-02-25T07:21:13;5.10;99.90
21823;DHT22;11074;48.596;9.238;2023-02-25T07:23:39;5.10;99.90
21823;DHT22;11074;48.596;9.238;2023-02-25T07:26:07;5.10;99.90
21823;DHT22;11074;48.596;9.238;2023-02-25T07:28:35;5.20;99.90
21823;DHT22;11074;48.596;9.238;2023-02-25T07:31:02;5.30;99.90
21823;DHT22;11074;48.596;9.238;2023-02-25T07:33:32;5.40;99.90
21823;DHT22;11074;48.596;9.238;2023-02-25T07:35:57;5.40;99.90
21823;DHT22;11074;48.596;9.238;2023-02-25T07:38:23;5.50;99.90
21823;DHT22;11074;48.596;9.238;2023-02-25T07:40:49;5.50;99.90
21823;DHT22;11074;48.596;9.238;2023-02-25T07:43:15;5.50;99.90
21823;DHT22;11074;48.596;9.238;2023-02-25T07:45:40;5.50;99.90
21823;DHT22;11074;48.596;9.238;2023-02-25T07:48:06;5.50;99.90
21823;DHT22;11074;48.596;9.238;2023-02-25T07:50:32;5.50;99.90
21823;DHT22;11074;48.596;9.238;2023-02-25T07:52:58;5.60;99.90
21823;DHT22;11074;48.596;9.238;2023-02-25T07:55:24;5.60;99.90
21823;DHT22;11074;48.596;9.238;2023-02-25T07:57:50;5.70;99.90
21823;DHT22;11074;48.596;9.238;2023-02-25T08:00:16;5.70;99.90
21823;DHT22;11074;48.596;9.238;2023-02-25T08:02:43;5.60;99.90
21823;DHT22;11074;48.596;9.238;2023-02-25T08:05:09;5.60;99.90
21823;DHT22;11074;48.596;9.238;2023-02-25T08:07:35;5.60;99.90
21823;DHT22;11074;48.596;9.238;2023-02-25T08:10:02;5.40;99.90
21823;DHT22;11074;48.596;9.238;2023-02-25T08:12:28;5.40;99.90
21823;DHT22;11074;48.596;9.238;2023-02-25T08:14:54;5.30;99.90
21823;DHT22;11074;48.596;9.238;2023-02-25T08:17:21;5.40;99.90
21823;DHT22;11074;48.596;9.238;2023-02-25T08:19:47;5.50;99.90
21823;DHT22;11074;48.596;9.238;2023-02-25T08:22:13;5.60;99.90
21823;DHT22;11074;48.596;9.238;2023-02-25T08:24:39;5.70;99.90
21823;DHT22;11074;48.596;9.238;2023-02-25T08:27:05;5.80;99.90
21823;DHT22;11074;48.596;9.238;2023-02-25T08:29:34;5.90;99.90
21823;DHT22;11074;48.596;9.238;2023-02-25T08:32:01;5.90;99.90
21823;DHT22;11074;48.596;9.238;2023-02-25T08:34:27;6.00;99.90
21823;DHT22;11074;48.596;9.238;2023-02-25T08:36:52;6.10;99.90
21823;DHT22;11074;48.596;9.238;2023-02-25T08:39:20;6.20;99.90
21823;DHT22;11074;48.596;9.238;2023-02-25T08:41:47;6.20;99.90
21823;DHT22;11074;48.596;9.238;2023-02-25T08:44:12;6.40;99.90
21823;DHT22;11074;48.596;9.238;2023-02-25T08:46:38;6.50;99.90
21823;DHT22;11074;48.596;9.238;2023-02-25T08:49:04;6.50;99.90
21823;DHT22;11074;48.596;9.238;2023-02-25T08:51:31;6.60;99.90
21823;DHT22;11074;48.596;9.238;2023-02-25T08:54:21;6.60;99.90
21823;DHT22;11074;48.596;9.238;2023-02-25T08:56:49;6.60;99.90
21823;DHT22;11074;48.596;9.238;2023-02-25T08:59:16;6.50;99.90
21823;DHT22;11074;48.596;9.238;2023-02-25T09:01:42;6.40;99.90
21823;DHT22;11074;48.596;9.238;2023-02-25T09:04:13;6.20;99.90
21823;DHT22;11074;48.596;9.238;2023-02-25T09:06:38;6.10;99.90
21823;DHT22;11074;48.596;9.238;2023-02-25T09:09:04;6.00;99.90
21823;DHT22;11074;48.596;9.238;2023-02-25T09:11:30;5.80;99.90
21823;DHT22;11074;48.596;9.238;2023-02-25T09:13:57;5.70;99.90
21823;DHT22;11074;48.596;9.238;2023-02-25T09:16:26;5.70;99.90
21823;DHT22;11074;48.596;9.238;2023-02-25T09:18:52;5.80;99.90
21823;DHT22;11074;48.596;9.238;2023-02-25T09:21:18;5.80;99.90
21823;DHT22;11074;48.596;9.238;2023-02-25T09:23:44;5.80;99.90
21823;DHT22;11074;48.596;9.238;2023-02-25T09:26:16;5.90;99.90
21823;DHT22;11074;48.596;9.238;2023-02-25T09:28:43;5.90;99.90
21823;DHT22;11074;48.596;9.238;2023-02-25T09:31:09;5.90;99.90
21823;DHT22;11074;48.596;9.238;2023-02-25T09:33:36;5.90;99.90
21823;DHT22;11074;48.596;9.238;2023-02-25T09:36:07;6.00;99.90
21823;DHT22;11074;48.596;9.238;2023-02-25T09:38:39;6.10;99.90
21823;DHT22;11074;48.596;9.238;2023-02-25T09:41:34;6.20;99.90
21823;DHT22;11074;48.596;9.238;2023-02-25T09:44:29;6.30;99.90
21823;DHT22;11074;48.596;9.238;2023-02-25T09:47:31;6.50;99.90
21823;DHT22;11074;48.596;9.238;2023-02-25T09:55:42;6.80;99.90
21823;DHT22;11074;48.596;9.238;2023-02-25T09:58:29;6.80;99.90
21823;DHT22;11074;48.596;9.238;2023-02-25T10:06:04;6.80;99.90
21823;DHT22;11074;48.596;9.238;2023-02-25T10:15:44;7.00;99.90
21823;DHT22;11074;48.596;9.238;2023-02-25T10:18:10;7.30;99.90
21823;DHT22;11074;48.596;9.238;2023-02-25T10:24:12;7.70;99.90
21823;DHT22;11074;48.596;9.238;2023-02-25T10:26:46;7.50;99.90
21823;DHT22;11074;48.596;9.238;2023-02-25T10:29:29;7.30;99.90
21823;DHT22;11074;48.596;9.238;2023-02-25T10:32:14;7.00;99.90
21823;DHT22;11074;48.596;9.238;2023-02-25T10:34:51;6.90;99.90
21823;DHT22;11074;48.596;9.238;2023-02-25T10:37:21;6.80;99.90
21823;DHT22;11074;48.596;9.238;2023-02-25T10:40:03;6.70;99.90
21823;DHT22;11074;48.596;9.238;2023-02-25T10:42:31;6.70;99.90
21823;DHT22;11074;48.596;9.238;2023-02-25T10:45:08;6.70;99.90
21823;DHT22;11074;48.596;9.238;2023-02-25T10:47:39;6.70;99.90
21823;DHT22;11074;48.596;9.238;2023-02-25T10:50:18;6.90;99.90
21823;DHT22;11074;48.596;9.238;2023-02-25T10:53:00;6.90;99.90
21823;DHT22;11074;48.596;9.238;2023-02-25T10:55:40;7.10;99.90
21823;DHT22;11074;48.596;9.238;2023-02-25T11:03:53;7.10;99.90
21823;DHT22;11074;48.596;9.238;2023-02-25T11:06:33;7.30;99.90
21823;DHT22;11074;48.596;9.238;2023-02-25T11:09:04;7.40;99.90
21823;DHT22;11074;48.596;9.238;2023-02-25T11:11:56;7.40;99.90
21823;DHT22;11074;48.596;9.238;2023-02-25T11:14:35;7.40;99.90
21823;DHT22;11074;48.596;9.238;2023-02-25T11:17:12;7.30;99.90
21823;DHT22;11074;48.596;9.238;2023-02-25T11:19:58;7.30;99.90
21823;DHT22;11074;48.596;9.238;2023-02-25T11:22:37;7.40;99.90
21823;DHT22;11074;48.596;9.238;2023-02-25T11:25:16;7.40;99.90
21823;DHT22;11074;48.596;9.238;2023-02-25T11:27:47;7.40;99.90
21823;DHT22;11074;48.596;9.238;2023-02-25T11:30:23;7.50;99.90
21823;DHT22;11074;48.596;9.238;2023-02-25T11:32:56;7.40;99.90
21823;DHT22;11074;48.596;9.238;2023-02-25T11:35:32;7.30;99.90
21823;DHT22;11074;48.596;9.238;2023-02-25T11:38:26;7.40;99.90
21823;DHT22;11074;48.596;9.238;2023-02-25T11:41:03;7.50;99.90
21823;DHT22;11074;48.596;9.238;2023-02-25T11:43:40;7.60;99.90
21823;DHT22;11074;48.596;9.238;2023-02-25T11:46:26;7.60;99.90
21823;DHT22;11074;48.596;9.238;2023-02-25T11:49:12;7.80;99.90
21823;DHT22;11074;48.596;9.238;2023-02-25T11:51:56;7.80;99.90
21823;DHT22;11074;48.596;9.238;2023-02-25T11:57:41;7.50;99.90
21823;DHT22;11074;48.596;9.238;2023-02-25T12:03:22;7.30;99.90
21823;DHT22;11074;48.596;9.238;2023-02-25T12:06:36;7.40;99.90
21823;DHT22;11074;48.596;9.238;2023-02-25T12:09:31;7.40;99.90
21823;DHT22;11074;48.596;9.238;2023-02-25T12:18:49;7.50;99.90
21823;DHT22;11074;48.596;9.238;2023-02-25T12:25:15;7.30;99.90
21823;DHT22;11074;48.596;9.238;2023-02-25T12:31:19;7.00;99.90
21823;DHT22;11074;48.596;9.238;2023-02-25T12:34:10;6.90;99.90
21823;DHT22;11074;48.596;9.238;2023-02-25T12:37:04;6.90;99.90
21823;DHT22;11074;48.596;9.238;2023-02-25T12:39:47;6.80;99.90
21823;DHT22;11074;48.596;9.238;2023-02-25T12:55:06;6.80;99.90
21823;DHT22;11074;48.596;9.238;2023-02-25T13:01:25;7.00;99.90
21823;DHT22;11074;48.596;9.238;2023-02-25T13:07:36;7.10;99.90
21823;DHT22;11074;48.596;9.238;2023-02-25T13:10:40;7.30;99.90
21823;DHT22;11074;48.596;9.238;2023-02-25T13:34:48;7.30;99.90
21823;DHT22;11074;48.596;9.238;2023-02-25T13:46:55;7.20;99.90
21823;DHT22;11074;48.596;9.238;2023-02-25T13:59:39;7.00;99.90
21823;DHT22;11074;48.596;9.238;2023-02-25T14:02:34;6.90;99.90
21823;DHT22;11074;48.596;9.238;2023-02-25T14:12:06;6.30;99.90
21823;DHT22;11074;48.596;9.238;2023-02-25T14:15:20;6.30;99.90
21823;DHT22;11074;48.596;9.238;2023-02-25T14:17:57;6.20;99.90
21823;DHT22;11074;48.596;9.238;2023-02-25T14:21:24;6.30;99.90
21823;DHT22;11074;48.596;9.238;2023-02-25T14:27:40;6.50;99.90
21823;DHT22;11074;48.596;9.238;2023-02-25T14:42:39;7.00;99.90
21823;DHT22;11074;48.596;9.238;2023-02-25T14:45:30;7.10;99.90
21823;DHT22;11074;48.596;9.238;2023-02-25T14:48:04;7.20;99.90
21823;DHT22;11074;48.596;9.238;2023-02-25T14:53:52;7.40;99.90
21823;DHT22;11074;48.596;9.238;2023-02-25T14:56:54;7.70;99.90
21823;DHT22;11074;48.596;9.238;2023-02-25T14:59:52;9.10;99.90
21823;DHT22;11074;48.596;9.238;2023-02-25T15:02:39;10.10;99.90
21823;DHT22;11074;48.596;9.238;2023-02-25T15:08:44;11.50;99.90
21823;DHT22;11074;48.596;9.238;2023-02-25T15:11:38;10.70;99.90
21823;DHT22;11074;48.596;9.238;2023-02-25T15:20:32;11.60;99.90
21823;DHT22;11074;48.596;9.238;2023-02-25T15:23:07;12.30;99.90
21823;DHT22;11074;48.596;9.238;2023-02-25T15:26:17;11.40;99.90
21823;DHT22;11074;48.596;9.238;2023-02-25T15:28:48;10.40;99.90
21823;DHT22;11074;48.596;9.238;2023-02-25T15:31:32;9.40;99.90
21823;DHT22;11074;48.596;9.238;2023-02-25T15:34:30;8.70;99.90
21823;DHT22;11074;48.596;9.238;2023-02-25T15:37:18;8.20;99.90
21823;DHT22;11074;48.596;9.238;2023-02-25T15:45:34;7.90;99.90
21823;DHT22;11074;48.596;9.238;2023-02-25T15:53:55;7.40;99.90
21823;DHT22;11074;48.596;9.238;2023-02-25T16:06:09;7.10;99.90
21823;DHT22;11074;48.596;9.238;2023-02-25T16:09:12;7.10;99.90
21823;DHT22;11074;48.596;9.238;2023-02-25T16:11:49;7.00;99.90
21823;DHT22;11074;48.596;9.238;2023-02-25T16:16:50;7.00;99.90
21823;DHT22;11074;48.596;9.238;2023-02-25T16:19:24;6.90;99.90
21823;DHT22;11074;48.596;9.238;2023-02-25T16:21:58;6.90;99.90
21823;DHT22;11074;48.596;9.238;2023-02-25T16:24:27;6.90;99.90
21823;DHT22;11074;48.596;9.238;2023-02-25T16:27:05;6.80;99.90
21823;DHT22;11074;48.596;9.238;2023-02-25T16:29:54;6.80;99.90
21823;DHT22;11074;48.596;9.238;2023-02-25T16:32:51;6.80;99.90
21823;DHT22;11074;48.596;9.238;2023-02-25T16:35:30;6.80;99.90
21823;DHT22;11074;48.596;9.238;2023-02-25T16:38:08;6.80;99.90
21823;DHT22;11074;48.596;9.238;2023-02-25T16:40:44;6.70;99.90
21823;DHT22;11074;48.596;9.238;2023-02-25T16:43:26;6.70;99.90
21823;DHT22;11074;48.596;9.238;2023-02-25T16:46:03;6.70;99.90
21823;DHT22;11074;48.596;9.238;2023-02-25T16:48:58;6.60;99.90
21823;DHT22;11074;48.596;9.238;2023-02-25T16:51:29;6.70;99.90
21823;DHT22;11074;48.596;9.238;2023-02-25T16:56:38;6.50;99.90
21823;DHT22;11074;48.596;9.238;2023-02-25T17:02:02;6.40;99.90
21823;DHT22;11074;48.596;9.238;2023-02-25T17:07:27;6.30;99.90
21823;DHT22;11074;48.596;9.238;2023-02-25T17:10:00;6.20;99.90
21823;DHT22;11074;48.596;9.238;2023-02-25T17:12:36;6.20;99.90
21823;DHT22;11074;48.596;9.238;2023-02-25T17:15:19;6.10;99.90
21823;DHT22;11074;48.596;9.238;2023-02-25T17:17:55;6.10;99.90
21823;DHT22;11074;48.596;9.238;2023-02-25T17:20:24;6.10;99.90
21823;DHT22;11074;48.596;9.238;2023-02-25T17:22:55;6.20;99.90
21823;DHT22;11074;48.596;9.238;2023-02-25T17:25:32;6.20;99.90
21823;DHT22;11074;48.596;9.238;2023-02-25T17:28:02;6.20;99.90
21823;DHT22;11074;48.596;9.238;2023-02-25T17:30:39;6.20;99.90
21823;DHT22;11074;48.596;9.238;2023-02-25T17:33:25;6.20;99.90
21823;DHT22;11074;48.596;9.238;2023-02-25T17:35:57;6.10;99.90
21823;DHT22;11074;48.596;9.238;2023-02-25T17:38:27;5.90;99.90
21823;DHT22;11074;48.596;9.238;2023-02-25T17:40:54;5.90;99.90
21823;DHT22;11074;48.596;9.238;2023-02-25T17:43:35;5.90;99.90
21823;DHT22;11074;48.596;9.238;2023-02-25T17:49:47;6.00;99.90
21823;DHT22;11074;48.596;9.238;2023-02-25T17:52:02;6.00;99.90
21823;DHT22;11074;48.596;9.238;2023-02-25T17:54:44;5.90;99.90
21823;DHT22;11074;48.596;9.238;2023-02-25T17:57:17;5.90;99.90
21823;DHT22;11074;48.596;9.238;2023-02-25T17:59:56;5.90;99.90
21823;DHT22;11074;48.596;9.238;2023-02-25T18:02:39;5.90;99.90
21823;DHT22;11074;48.596;9.238;2023-02-25T18:05:23;5.90;99.90
21823;DHT22;11074;48.596;9.238;2023-02-25T18:08:07;5.90;99.90
21823;DHT22;11074;48.596;9.238;2023-02-25T18:10:51;5.90;99.90
21823;DHT22;11074;48.596;9.238;2023-02-25T18:13:34;5.80;99.90
21823;DHT22;11074;48.596;9.238;2023-02-25T18:16:24;5.40;99.90
21823;DHT22;11074;48.596;9.238;2023-02-25T18:18:55;5.20;99.90
21823;DHT22;11074;48.596;9.238;2023-02-25T18:21:22;4.90;99.90
21823;DHT22;11074;48.596;9.238;2023-02-25T18:23:49;4.70;99.90
21823;DHT22;11074;48.596;9.238;2023-02-25T18:26:33;4.70;99.90
21823;DHT22;11074;48.596;9.238;2023-02-25T18:28:59;4.70;99.90
21823;DHT22;11074;48.596;9.238;2023-02-25T18:31:25;4.60;99.90
21823;DHT22;11074;48.596;9.238;2023-02-25T18:33:51;4.60;99.90
21823;DHT22;11074;48.596;9.238;2023-02-25T18:36:22;4.60;99.90
21823;DHT22;11074;48.596;9.238;2023-02-25T18:38:53;4.50;99.90
21823;DHT22;11074;48.596;9.238;2023-02-25T18:41:21;4.60;99.90
21823;DHT22;11074;48.596;9.238;2023-02-25T18:43:47;4.60;99.90
21823;DHT22;11074;48.596;9.238;2023-02-25T18:46:12;4.60;99.90
21823;DHT22;11074;48.596;9.238;2023-02-25T18:48:38;4.60;99.90
21823;DHT22;11074;48.596;9.238;2023-02-25T18:51:09;4.60;99.90
21823;DHT22;11074;48.596;9.238;2023-02-25T18:53:38;4.70;99.90
21823;DHT22;11074;48.596;9.238;2023-02-25T18:56:05;4.70;99.90
21823;DHT22;11074;48.596;9.238;2023-02-25T18:58:32;4.70;99.90
21823;DHT22;11074;48.596;9.238;2023-02-25T19:00:58;4.70;99.90
21823;DHT22;11074;48.596;9.238;2023-02-25T19:03:28;4.70;99.90
21823;DHT22;11074;48.596;9.238;2023-02-25T19:05:56;4.70;99.90
21823;DHT22;11074;48.596;9.238;2023-02-25T19:08:21;4.70;99.90
21823;DHT22;11074;48.596;9.238;2023-02-25T19:10:48;4.80;99.90
21823;DHT22;11074;48.596;9.238;2023-02-25T19:13:47;4.90;99.90
21823;DHT22;11074;48.596;9.238;2023-02-25T19:16:13;4.90;99.90
21823;DHT22;11074;48.596;9.238;2023-02-25T19:18:41;4.90;99.90
21823;DHT22;11074;48.596;9.238;2023-02-25T19:21:14;4.90;99.90
21823;DHT22;11074;48.596;9.238;2023-02-25T19:23:43;4.90;99.90
21823;DHT22;11074;48.596;9.238;2023-02-25T19:26:09;4.90;99.90
21823;DHT22;11074;48.596;9.238;2023-02-25T19:28:36;4.90;99.90
21823;DHT22;11074;48.596;9.238;2023-02-25T19:31:06;4.90;99.90
21823;DHT22;11074;48.596;9.238;2023-02-25T19:33:32;5.00;99.90